KJAN

Jackson-Medgar Wiley Evers International Airport

Jackson, Mississippi, USA
METAR KJAN 200654Z AUTO 16009KT 10SM SCT048 20/18 A3014 RMK AO2 SLP202 T02000183
Observed Flight Rules
Feb-20 @ 06:54 UTC (31 minutes ago) Visual Flight Rules
Wind Visibility Clouds
160° at 9 knots 10 miles
  • Scattered at 4,800' AGL
Temperatures Readings
Current 20°C / 68°F
Dewpoint 18°C / 64°F
Humidity 88%
Altimeter 30.14" Hg
Pressure 1020.2 hPa
Elevation 91
METAR KJAN 200654Z AUTO 16009KT 10SM SCT048 20/18 A3014 RMK AO2 SLP202 T02000183
Observed Flight Rules
Feb-20 @ 06:54 UTC
(31 minutes ago)
VFR
Wind Visibility
160° at 9 knots 10 miles
Clouds
  • Scattered at 4,800' AGL
Temperature Dewpoint
20°C / 68°F 18°C / 64°F
Humidity Altimeter Pressure
88% 30.14" Hg 1020.2 hPa